Time;durP1;ratioP1;P1;durP2;ratioP2;P2;SDS_P1;SDS_P2;PMS_P1;PMS_P2;Temp;Humidity;BMP_temperature;BMP_pressure;BME280_temperature;BME280_humidity;BME280_pressure;Samples;Min_cycle;Max_cycle;Signal;HPM_P1;HPM_P2
2023/06/18 00:02:00;;;;;;;4.60;3.97;;;24.50;49.90;;;;;;5032452;28;20029;-75
2023/06/18 00:04:26;;;;;;;4.70;4.00;;;24.50;49.90;;;;;;5033106;28;20026;-73
2023/06/18 00:06:52;;;;;;;5.80;4.15;;;24.50;49.90;;;;;;5032649;28;20053;-73
2023/06/18 00:09:18;;;;;;;4.82;3.90;;;24.50;50.00;;;;;;5014770;28;20167;-73
2023/06/18 00:11:43;;;;;;;4.78;4.20;;;24.40;50.00;;;;;;5015099;28;20509;-73
2023/06/18 00:14:09;;;;;;;5.88;4.30;;;24.40;50.00;;;;;;5032497;28;20036;-73
2023/06/18 00:16:35;;;;;;;5.50;3.88;;;24.40;50.00;;;;;;5032581;28;20037;-73
2023/06/18 00:19:00;;;;;;;4.13;3.67;;;24.40;50.10;;;;;;5032544;28;20041;-74
2023/06/18 00:21:26;;;;;;;4.25;3.60;;;24.40;50.10;;;;;;5032331;28;20026;-73
2023/06/18 00:23:52;;;;;;;4.18;3.78;;;24.30;50.10;;;;;;5032716;28;20017;-74
2023/06/18 00:26:18;;;;;;;5.25;3.80;;;24.30;50.20;;;;;;5034969;28;20034;-73
2023/06/18 00:28:44;;;;;;;5.68;3.92;;;24.30;50.20;;;;;;5018935;28;20124;-74
2023/06/18 00:31:11;;;;;;;4.90;4.38;;;24.30;50.20;;;;;;5035978;28;20079;-74
2023/06/18 00:33:37;;;;;;;5.00;4.50;;;24.30;50.30;;;;;;5037482;28;20056;-73
2023/06/18 00:36:06;;;;;;;4.97;4.10;;;24.30;50.30;;;;;;5037075;28;20061;-73
2023/06/18 00:38:35;;;;;;;6.95;4.00;;;24.20;50.30;;;;;;5037264;28;20076;-73
2023/06/18 00:41:01;;;;;;;4.40;4.00;;;24.20;50.40;;;;;;5037297;28;20037;-73
2023/06/18 00:43:27;;;;;;;5.40;3.95;;;24.20;50.40;;;;;;5037266;28;20032;-73
2023/06/18 00:46:01;;;;;;;6.05;4.20;;;24.10;50.40;;;;;;5033306;28;20368;-74
2023/06/18 00:48:27;;;;;;;4.63;3.95;;;24.10;50.50;;;;;;5016745;28;20092;-74
2023/06/18 00:50:53;;;;;;;6.07;4.32;;;24.10;50.50;;;;;;5016249;28;20038;-73
2023/06/18 00:53:20;;;;;;;4.75;4.25;;;24.00;50.60;;;;;;5016062;28;20444;-74
2023/06/18 00:55:47;;;;;;;5.60;4.57;;;24.00;50.70;;;;;;5016231;28;20384;-75
2023/06/18 00:58:13;;;;;;;4.35;3.88;;;24.00;50.70;;;;;;5016548;28;20026;-74
2023/06/18 01:00:40;;;;;;;4.38;3.83;;;23.90;50.70;;;;;;5016026;28;20109;-74
2023/06/18 01:03:16;;;;;;;4.68;3.80;;;23.90;50.80;;;;;;5016060;28;20534;-74
2023/06/18 01:05:50;;;;;;;4.70;4.13;;;23.90;50.90;;;;;;5011381;28;20408;-73
2023/06/18 01:08:17;;;;;;;4.80;3.72;;;23.90;51.00;;;;;;4996594;28;20026;-74
2023/06/18 01:10:43;;;;;;;4.40;3.92;;;23.80;51.00;;;;;;4996259;28;20448;-73
2023/06/18 01:13:14;;;;;;;7.30;4.45;;;23.80;51.10;;;;;;4996631;28;20034;-74
2023/06/18 01:15:40;;;;;;;4.68;4.03;;;23.80;51.20;;;;;;4996005;28;20157;-74
2023/06/18 01:18:07;;;;;;;5.78;4.35;;;23.70;51.20;;;;;;4996445;28;20037;-74
2023/06/18 01:20:40;;;;;;;6.55;4.60;;;23.70;51.30;;;;;;4996348;28;20045;-73
2023/06/18 01:23:30;;;;;;;6.43;5.07;;;23.70;51.40;;;;;;4994992;28;20385;-75
2023/06/18 01:25:59;;;;;;;5.88;4.80;;;23.70;51.50;;;;;;4994766;28;20033;-74
2023/06/18 01:28:27;;;;;;;5.85;4.97;;;23.70;51.60;;;;;;4994581;28;20050;-73
2023/06/18 01:30:54;;;;;;;4.60;4.10;;;23.60;51.60;;;;;;5011070;28;20053;-73
2023/06/18 01:33:21;;;;;;;5.72;4.70;;;23.50;51.60;;;;;;4995779;28;20469;-74
2023/06/18 01:35:49;;;;;;;5.13;4.45;;;23.50;51.70;;;;;;4995500;28;20026;-74
2023/06/18 01:38:30;;;;;;;4.82;4.22;;;23.40;51.80;;;;;;4995171;28;20022;-73
2023/06/18 01:41:15;;;;;;;5.22;4.18;;;23.40;52.00;;;;;;5011305;28;20053;-73
2023/06/18 01:43:57;;;;;;;4.70;4.20;;;23.40;52.40;;;;;;4994495;28;20062;-74
2023/06/18 01:46:23;;;;;;;4.88;4.15;;;23.30;52.00;;;;;;5002360;28;20052;-73
2023/06/18 01:49:00;;;;;;;5.00;4.05;;;23.30;52.60;;;;;;5015297;28;20428;-74
2023/06/18 01:51:27;;;;;;;5.05;4.00;;;23.30;52.20;;;;;;4997991;28;20044;-73
2023/06/18 01:53:55;;;;;;;4.80;4.30;;;23.30;52.20;;;;;;5015348;28;20372;-73
2023/06/18 01:56:23;;;;;;;5.40;4.28;;;23.20;52.20;;;;;;5014696;28;20431;-73
2023/06/18 01:58:50;;;;;;;5.03;4.00;;;23.20;52.20;;;;;;4997427;28;20053;-73
2023/06/18 02:01:16;;;;;;;4.78;4.25;;;23.20;52.40;;;;;;5014094;28;20026;-72
2023/06/18 02:03:41;;;;;;;5.22;4.10;;;23.20;52.50;;;;;;5014707;28;20032;-73
2023/06/18 02:06:07;;;;;;;5.13;4.40;;;23.20;52.50;;;;;;5022324;28;20056;-73
2023/06/18 02:08:33;;;;;;;4.35;3.85;;;23.20;52.60;;;;;;5034902;28;20145;-73
2023/06/18 02:10:59;;;;;;;5.18;4.22;;;23.20;52.60;;;;;;5034642;28;20531;-72
2023/06/18 02:13:25;;;;;;;5.30;4.43;;;23.20;52.60;;;;;;5034393;28;20087;-74
2023/06/18 02:15:51;;;;;;;4.90;4.18;;;23.20;52.70;;;;;;5033926;28;20025;-74
2023/06/18 02:18:17;;;;;;;6.03;4.28;;;23.10;52.70;;;;;;5034380;28;20029;-74
2023/06/18 02:20:44;;;;;;;4.78;4.05;;;23.10;52.80;;;;;;5034543;28;20041;-74
2023/06/18 02:23:09;;;;;;;4.93;4.30;;;23.10;52.90;;;;;;5034539;28;20120;-74
2023/06/18 02:25:35;;;;;;;4.25;3.85;;;23.10;52.90;;;;;;5016629;28;20108;-74
2023/06/18 02:28:05;;;;;;;5.10;4.20;;;23.00;52.90;;;;;;5033434;28;20036;-73
2023/06/18 02:30:31;;;;;;;5.20;4.28;;;23.00;53.10;;;;;;5034486;28;20379;-73
2023/06/18 02:32:58;;;;;;;5.40;4.47;;;23.00;53.20;;;;;;5034316;28;20029;-73
2023/06/18 02:35:26;;;;;;;4.80;4.18;;;22.90;53.20;;;;;;5016503;28;20029;-73
2023/06/18 02:37:52;;;;;;;5.15;4.20;;;22.90;53.30;;;;;;5015926;28;20029;-73
2023/06/18 02:40:17;;;;;;;5.65;4.18;;;22.90;53.30;;;;;;5033397;28;20041;-73
2023/06/18 02:42:50;;;;;;;4.70;4.20;;;22.90;53.40;;;;;;5034315;28;20044;-73
2023/06/18 02:45:17;;;;;;;4.95;4.40;;;22.90;53.40;;;;;;5016415;28;20095;-73
2023/06/18 02:47:44;;;;;;;5.13;3.90;;;22.90;53.50;;;;;;5015508;28;20032;-73
2023/06/18 02:50:11;;;;;;;5.22;4.55;;;22.90;53.60;;;;;;5032666;28;20111;-73
2023/06/18 02:52:37;;;;;;;5.88;4.53;;;22.90;53.60;;;;;;5033406;28;20144;-73
2023/06/18 02:55:03;;;;;;;5.68;3.97;;;22.90;53.70;;;;;;5015730;28;20033;-74
2023/06/18 02:57:29;;;;;;;4.97;4.45;;;22.90;53.70;;;;;;5033567;28;20067;-74
2023/06/18 02:59:55;;;;;;;4.70;4.20;;;22.90;53.70;;;;;;5033626;28;20108;-73
2023/06/18 03:02:21;;;;;;;5.32;4.10;;;22.90;53.80;;;;;;5033441;28;20104;-74
2023/06/18 03:04:47;;;;;;;6.18;4.35;;;23.00;53.80;;;;;;5033495;28;20442;-74
2023/06/18 03:07:12;;;;;;;4.30;3.90;;;23.10;53.80;;;;;;5033143;28;20109;-74
2023/06/18 03:09:38;;;;;;;4.75;4.00;;;23.10;53.80;;;;;;5033111;28;20053;-74
2023/06/18 03:12:04;;;;;;;5.68;4.57;;;23.10;53.80;;;;;;5033323;28;20029;-74
2023/06/18 03:14:29;;;;;;;4.78;3.90;;;23.20;53.90;;;;;;5015770;28;20038;-72
2023/06/18 03:16:56;;;;;;;6.47;4.75;;;23.20;53.90;;;;;;5033097;28;20025;-73
2023/06/18 03:19:23;;;;;;;5.32;3.92;;;23.30;54.00;;;;;;5032999;28;20137;-73
2023/06/18 03:21:48;;;;;;;4.85;4.28;;;23.30;54.00;;;;;;5015331;28;20475;-73
2023/06/18 03:24:14;;;;;;;6.35;4.40;;;23.40;54.20;;;;;;5032757;28;20026;-74
2023/06/18 03:26:41;;;;;;;5.05;4.22;;;23.40;54.20;;;;;;5033345;28;20108;-72
2023/06/18 03:29:07;;;;;;;5.50;4.38;;;23.50;54.30;;;;;;5032687;28;20021;-73
2023/06/18 03:31:33;;;;;;;4.70;4.20;;;23.50;54.30;;;;;;5033022;28;20108;-74
2023/06/18 03:34:01;;;;;;;5.00;4.32;;;23.50;54.30;;;;;;5032794;28;20132;-73
2023/06/18 03:36:29;;;;;;;5.07;4.10;;;23.60;54.30;;;;;;5033078;28;20084;-75
2023/06/18 03:38:55;;;;;;;5.25;4.47;;;23.60;54.30;;;;;;5032623;28;20434;-73
2023/06/18 03:41:21;;;;;;;7.32;3.85;;;23.70;54.30;;;;;;5032832;28;20033;-74
2023/06/18 03:43:47;;;;;;;5.70;4.22;;;23.70;54.30;;;;;;5032917;28;20028;-73
2023/06/18 03:46:12;;;;;;;6.53;4.35;;;23.70;54.20;;;;;;5032911;28;20029;-72
2023/06/18 03:48:39;;;;;;;7.00;4.55;;;23.70;54.10;;;;;;5031575;28;20022;-73
2023/06/18 03:51:05;;;;;;;5.88;4.00;;;23.80;54.10;;;;;;5015130;28;20383;-73
2023/06/18 03:53:36;;;;;;;5.35;3.85;;;23.80;54.00;;;;;;5032379;28;20045;-73
2023/06/18 03:56:03;;;;;;;5.40;4.35;;;23.90;53.90;;;;;;5014991;28;20029;-73
2023/06/18 03:58:28;;;;;;;6.47;4.45;;;23.90;53.80;;;;;;5033083;28;20029;-75
2023/06/18 04:00:54;;;;;;;4.43;4.03;;;23.90;53.70;;;;;;5032362;28;20105;-73
2023/06/18 04:03:21;;;;;;;6.38;4.38;;;24.00;53.60;;;;;;5032868;28;20021;-73
2023/06/18 04:05:46;;;;;;;4.93;4.43;;;24.10;53.60;;;;;;5032152;28;20036;-73
2023/06/18 04:08:12;;;;;;;4.30;3.80;;;24.10;53.50;;;;;;5032476;28;20495;-73
2023/06/18 04:10:37;;;;;;;4.60;3.78;;;24.20;53.50;;;;;;5032380;28;20025;-73
2023/06/18 04:13:03;;;;;;;4.18;3.78;;;24.20;53.50;;;;;;5032758;28;20422;-74
2023/06/18 04:15:29;;;;;;;4.18;3.78;;;24.20;53.50;;;;;;5032528;28;20028;-73
2023/06/18 04:17:54;;;;;;;4.22;3.83;;;24.30;53.40;;;;;;5031895;28;20029;-72
2023/06/18 04:20:20;;;;;;;5.18;4.05;;;24.30;53.30;;;;;;5031618;28;20033;-73
2023/06/18 04:22:46;;;;;;;5.25;4.38;;;24.40;53.20;;;;;;5032434;28;20033;-73
2023/06/18 04:25:11;;;;;;;5.45;4.30;;;24.50;53.20;;;;;;5032368;28;20479;-73
2023/06/18 04:27:38;;;;;;;4.20;3.80;;;24.50;53.10;;;;;;5032499;28;20022;-73
2023/06/18 04:30:05;;;;;;;3.90;3.50;;;24.60;53.00;;;;;;5013978;28;20029;-74
2023/06/18 04:32:31;;;;;;;4.40;3.88;;;24.70;53.00;;;;;;5032175;28;20089;-73
2023/06/18 04:34:57;;;;;;;6.60;4.70;;;24.70;52.90;;;;;;5032137;28;20068;-74
2023/06/18 04:37:22;;;;;;;5.50;4.53;;;24.80;52.90;;;;;;5032826;28;20104;-75
2023/06/18 04:39:48;;;;;;;5.15;4.10;;;24.90;53.40;;;;;;5032343;28;20025;-74
2023/06/18 04:42:14;;;;;;;6.15;4.60;;;25.00;52.80;;;;;;5031884;28;20033;-77
2023/06/18 04:44:39;;;;;;;4.10;3.65;;;25.00;53.20;;;;;;5032336;28;20032;-78
2023/06/18 04:47:05;;;;;;;24.95;16.33;;;25.10;52.50;;;;;;5032783;28;20351;-81
2023/06/18 04:49:31;;;;;;;21.73;19.42;;;25.10;52.40;;;;;;5033390;28;20036;-75
2023/06/18 04:51:57;;;;;;;25.33;22.52;;;25.20;52.50;;;;;;5033028;28;20428;-75
2023/06/18 04:54:23;;;;;;;15.65;14.15;;;25.30;52.50;;;;;;5032200;28;20037;-75
2023/06/18 04:56:48;;;;;;;12.52;11.32;;;25.30;52.40;;;;;;5032717;28;20468;-75
2023/06/18 04:59:14;;;;;;;9.18;8.27;;;25.40;52.30;;;;;;5015073;28;20033;-74
2023/06/18 05:01:39;;;;;;;7.55;6.85;;;25.50;52.20;;;;;;5032609;28;20029;-74
2023/06/18 05:04:05;;;;;;;7.88;5.95;;;25.50;52.10;;;;;;5014467;28;20026;-74
2023/06/18 05:06:31;;;;;;;6.30;5.60;;;25.60;51.90;;;;;;5032551;28;20380;-73
2023/06/18 05:08:56;;;;;;;5.25;4.75;;;25.70;51.80;;;;;;5032575;28;20054;-74
2023/06/18 05:11:22;;;;;;;5.00;4.50;;;25.70;51.60;;;;;;5031905;28;20033;-75
2023/06/18 05:13:47;;;;;;;5.45;4.70;;;25.80;51.60;;;;;;5035742;28;20029;-76
2023/06/18 05:16:13;;;;;;;4.20;3.80;;;25.80;51.50;;;;;;5035961;28;20468;-75
2023/06/18 05:18:39;;;;;;;4.57;4.18;;;25.90;51.50;;;;;;5035762;28;20030;-75
2023/06/18 05:21:04;;;;;;;4.88;4.38;;;25.90;51.50;;;;;;5036084;28;20037;-75
2023/06/18 05:23:30;;;;;;;5.28;4.60;;;25.90;51.50;;;;;;5035715;28;20025;-74
2023/06/18 05:25:56;;;;;;;5.57;4.28;;;26.00;51.50;;;;;;5035657;28;20104;-75
2023/06/18 05:28:21;;;;;;;5.38;3.88;;;26.00;51.40;;;;;;5035781;28;20108;-76
2023/06/18 05:30:47;;;;;;;4.95;4.35;;;26.10;51.50;;;;;;5034900;28;20033;-75
2023/06/18 05:33:13;;;;;;;5.20;4.25;;;26.10;51.30;;;;;;5035065;28;20084;-74
2023/06/18 05:35:39;;;;;;;5.25;4.50;;;26.10;51.20;;;;;;5035764;28;20463;-75
2023/06/18 05:38:05;;;;;;;4.95;4.25;;;26.20;51.20;;;;;;5033957;28;20096;-73
2023/06/18 05:40:30;;;;;;;4.82;3.90;;;26.20;51.20;;;;;;5035404;28;20034;-73
2023/06/18 05:42:56;;;;;;;4.45;3.65;;;26.30;51.20;;;;;;5035120;28;20032;-74
2023/06/18 05:45:21;;;;;;;7.35;4.03;;;26.30;51.00;;;;;;5035437;28;20112;-74
2023/06/18 05:47:47;;;;;;;6.78;4.00;;;26.30;51.00;;;;;;5034672;28;20368;-75
2023/06/18 05:50:13;;;;;;;5.97;4.00;;;26.40;51.00;;;;;;5017533;28;20030;-75
2023/06/18 05:52:39;;;;;;;4.93;3.90;;;26.40;50.90;;;;;;5034630;28;20029;-74
2023/06/18 05:55:08;;;;;;;4.13;3.53;;;26.50;50.90;;;;;;5017192;28;20038;-76
2023/06/18 05:57:34;;;;;;;4.80;4.30;;;26.50;50.80;;;;;;5035549;28;20528;-75
2023/06/18 06:00:00;;;;;;;5.15;4.10;;;26.60;50.80;;;;;;5034638;28;20060;-75
2023/06/18 06:02:25;;;;;;;4.50;4.00;;;26.60;50.80;;;;;;5034892;28;20029;-75
2023/06/18 06:04:51;;;;;;;5.93;4.40;;;26.70;50.80;;;;;;5034591;28;20026;-75
2023/06/18 06:07:17;;;;;;;4.72;3.80;;;26.70;50.70;;;;;;5034667;28;20025;-74
2023/06/18 06:09:42;;;;;;;6.95;4.10;;;26.80;50.70;;;;;;5034709;28;20056;-73
2023/06/18 06:12:08;;;;;;;4.97;4.10;;;26.80;50.60;;;;;;5034143;28;20045;-75
2023/06/18 06:14:35;;;;;;;4.25;3.65;;;26.80;50.70;;;;;;5034071;28;20042;-75
2023/06/18 06:17:01;;;;;;;4.95;3.65;;;26.80;50.60;;;;;;5034373;28;20095;-77
2023/06/18 06:19:26;;;;;;;14.02;12.73;;;26.80;50.60;;;;;;5036274;28;20030;-79
2023/06/18 06:21:52;;;;;;;32.28;29.00;;;26.80;50.70;;;;;;5034754;28;20025;-75
2023/06/18 06:24:18;;;;;;;31.95;29.00;;;26.80;50.70;;;;;;5033315;28;20030;-81
2023/06/18 06:26:43;;;;;;;19.42;17.50;;;26.80;51.40;;;;;;5032132;28;20025;-77
2023/06/18 06:29:09;;;;;;;12.98;11.75;;;26.90;50.80;;;;;;5034366;28;20026;-75
2023/06/18 06:31:35;;;;;;;9.27;8.38;;;26.90;50.70;;;;;;5033601;28;20052;-74
2023/06/18 06:34:01;;;;;;;9.52;7.85;;;26.90;50.50;;;;;;5033571;28;20029;-74
2023/06/18 06:36:26;;;;;;;7.75;6.07;;;27.00;50.50;;;;;;5034191;28;20048;-73
2023/06/18 06:38:52;;;;;;;5.90;5.30;;;27.00;50.50;;;;;;5033806;28;20029;-75
2023/06/18 06:41:18;;;;;;;7.18;5.35;;;27.00;50.50;;;;;;5016517;28;20025;-76
2023/06/18 06:43:43;;;;;;;5.40;4.63;;;27.00;50.40;;;;;;5033384;28;20036;-75
2023/06/18 06:46:09;;;;;;;5.82;5.07;;;27.10;50.50;;;;;;5033211;28;20033;-76
2023/06/18 06:48:35;;;;;;;25.95;23.58;;;27.10;50.40;;;;;;5034047;28;20104;-73
2023/06/18 06:51:01;;;;;;;12.05;10.82;;;27.10;50.40;;;;;;5016455;28;20141;-73
2023/06/18 06:53:26;;;;;;;8.80;8.00;;;27.20;50.30;;;;;;5034064;28;20107;-72
2023/06/18 06:55:52;;;;;;;8.05;6.50;;;27.10;50.10;;;;;;5033817;28;20029;-74
2023/06/18 06:58:18;;;;;;;11.35;10.25;;;27.10;50.10;;;;;;5034282;28;20076;-73
2023/06/18 07:00:44;;;;;;;33.58;30.10;;;27.20;50.10;;;;;;5034351;28;20392;-73
2023/06/18 07:03:10;;;;;;;22.40;20.17;;;27.10;50.10;;;;;;5033978;28;20021;-75
2023/06/18 07:05:35;;;;;;;10.95;9.95;;;27.10;50.10;;;;;;5033467;28;20080;-76
2023/06/18 07:08:02;;;;;;;9.23;8.30;;;27.10;50.00;;;;;;5032995;28;20049;-75
2023/06/18 07:10:28;;;;;;;7.57;6.75;;;27.10;50.00;;;;;;5033601;28;20041;-75
2023/06/18 07:12:53;;;;;;;7.55;6.05;;;27.10;50.00;;;;;;5033298;28;20057;-76
2023/06/18 07:15:19;;;;;;;6.63;5.93;;;27.10;50.00;;;;;;5031656;28;20049;-73
2023/06/18 07:17:45;;;;;;;7.05;5.00;;;27.20;50.00;;;;;;5033063;28;20474;-75
2023/06/18 07:20:11;;;;;;;5.63;4.90;;;27.20;49.90;;;;;;5031639;28;20033;-72
2023/06/18 07:22:37;;;;;;;5.38;4.80;;;27.10;49.80;;;;;;5033244;28;20531;-73
2023/06/18 07:25:03;;;;;;;6.38;4.50;;;27.20;49.80;;;;;;5033280;28;20025;-71
2023/06/18 07:27:28;;;;;;;5.18;4.68;;;27.20;49.80;;;;;;5032687;28;20033;-72
2023/06/18 07:29:55;;;;;;;4.57;4.18;;;27.20;49.70;;;;;;5033273;28;20384;-72
2023/06/18 07:32:21;;;;;;;22.33;20.13;;;27.20;49.50;;;;;;5032724;28;20036;-74
2023/06/18 07:34:46;;;;;;;32.63;24.88;;;27.20;49.30;;;;;;5032528;28;20033;-75
2023/06/18 07:37:12;;;;;;;21.15;18.90;;;27.20;49.10;;;;;;5032605;28;20030;-73
2023/06/18 07:39:38;;;;;;;13.55;11.40;;;27.30;49.00;;;;;;5033022;28;20029;-74
2023/06/18 07:42:03;;;;;;;10.70;8.40;;;27.30;48.80;;;;;;5031257;28;20478;-76
2023/06/18 07:44:29;;;;;;;8.75;6.90;;;27.30;48.50;;;;;;5014877;28;20025;-78
2023/06/18 07:46:55;;;;;;;6.63;5.93;;;27.40;48.30;;;;;;5034285;28;20414;-77
2023/06/18 07:49:21;;;;;;;38.50;34.80;;;27.40;48.10;;;;;;5033398;28;20356;-74
2023/06/18 07:51:47;;;;;;;25.63;23.02;;;27.40;47.90;;;;;;5032747;28;20044;-73
2023/06/18 07:54:13;;;;;;;13.43;12.02;;;27.40;47.70;;;;;;5014760;28;20384;-73
2023/06/18 07:56:39;;;;;;;11.50;10.20;;;27.40;47.50;;;;;;5030798;28;20079;-73
2023/06/18 07:59:05;;;;;;;9.18;8.25;;;27.50;47.40;;;;;;5032511;28;20052;-77
2023/06/18 08:01:30;;;;;;;8.05;6.50;;;27.50;47.30;;;;;;5032597;28;20033;-75
2023/06/18 08:03:56;;;;;;;6.55;5.95;;;27.50;47.10;;;;;;5032426;28;20028;-73
2023/06/18 08:06:22;;;;;;;5.90;5.30;;;27.60;47.00;;;;;;5032680;28;20022;-73
2023/06/18 08:08:48;;;;;;;5.38;4.57;;;27.60;46.60;;;;;;5031503;28;20105;-74
2023/06/18 08:11:15;;;;;;;5.28;4.40;;;27.60;46.40;;;;;;5014294;28;20029;-73
2023/06/18 08:13:40;;;;;;;4.20;3.80;;;27.60;46.10;;;;;;5031307;28;20052;-73
2023/06/18 08:16:06;;;;;;;13.05;11.75;;;27.70;46.00;;;;;;5033102;28;20080;-72
2023/06/18 08:18:34;;;;;;;30.10;22.88;;;27.70;45.80;;;;;;5031920;28;20057;-74
2023/06/18 08:21:00;;;;;;;13.60;11.35;;;27.80;45.60;;;;;;5032099;28;20069;-72
2023/06/18 08:23:26;;;;;;;9.43;8.02;;;27.80;45.40;;;;;;5032497;28;20025;-73
2023/06/18 08:25:52;;;;;;;7.68;5.88;;;27.80;45.10;;;;;;5032276;28;20159;-73
2023/06/18 08:28:17;;;;;;;7.78;5.55;;;27.80;45.00;;;;;;5031629;28;20040;-77
2023/06/18 08:30:43;;;;;;;17.67;15.90;;;27.90;44.90;;;;;;5033085;28;20134;-72
2023/06/18 08:33:10;;;;;;;26.30;23.55;;;27.90;44.70;;;;;;5033964;28;20040;-80
2023/06/18 08:35:37;;;;;;;28.13;25.35;;;27.90;44.50;;;;;;5032715;28;20026;-73
2023/06/18 08:38:03;;;;;;;13.50;12.20;;;28.00;44.50;;;;;;5031512;28;20029;-72
2023/06/18 08:40:35;;;;;;;8.60;7.70;;;28.00;44.30;;;;;;5032221;28;20060;-75
2023/06/18 08:43:01;;;;;;;7.63;6.60;;;28.00;44.00;;;;;;5014536;28;20033;-70
2023/06/18 08:45:27;;;;;;;8.10;6.32;;;28.00;43.90;;;;;;5032220;28;20025;-69
2023/06/18 08:47:58;;;;;;;11.00;9.15;;;28.00;44.40;;;;;;5018525;28;20025;-73
2023/06/18 08:50:27;;;;;;;29.73;26.83;;;28.00;44.40;;;;;;5036930;28;20022;-76
2023/06/18 08:52:58;;;;;;;9.68;8.68;;;28.00;44.30;;;;;;5017508;28;20467;-76
2023/06/18 08:55:25;;;;;;;7.22;6.53;;;28.00;44.00;;;;;;5016387;28;20037;-75
2023/06/18 08:58:14;;;;;;;6.18;5.57;;;28.00;43.80;;;;;;5034750;28;20467;-75
2023/06/18 09:00:40;;;;;;;6.70;4.90;;;28.10;43.20;;;;;;5014713;28;20113;-74
2023/06/18 09:03:06;;;;;;;6.68;4.55;;;28.10;43.50;;;;;;5035292;28;20100;-75
2023/06/18 09:05:32;;;;;;;4.10;3.70;;;28.10;43.30;;;;;;5017338;28;20444;-76
2023/06/18 09:07:58;;;;;;;5.00;4.50;;;28.20;43.20;;;;;;5024810;28;20045;-75
2023/06/18 09:10:25;;;;;;;3.90;3.50;;;28.20;43.00;;;;;;5016641;28;20022;-74
2023/06/18 09:12:51;;;;;;;4.10;3.65;;;28.20;42.70;;;;;;5034825;28;20038;-77
2023/06/18 09:15:16;;;;;;;4.05;3.65;;;28.30;42.60;;;;;;5034799;28;20036;-75
2023/06/18 09:17:50;;;;;;;5.30;3.65;;;28.30;42.50;;;;;;5034623;28;20026;-74
2023/06/18 09:20:19;;;;;;;3.80;3.35;;;28.40;42.30;;;;;;5034872;28;20032;-73
2023/06/18 09:22:46;;;;;;;4.55;3.90;;;28.40;42.50;;;;;;5025067;28;20888;-80
2023/06/18 09:25:21;;;;;;;4.05;3.55;;;28.40;42.20;;;;;;5032539;28;20093;-79
2023/06/18 09:27:47;;;;;;;4.53;3.50;;;28.40;42.20;;;;;;5047191;28;20044;-80
2023/06/18 09:30:23;;;;;;;3.80;3.45;;;28.50;42.30;;;;;;5017102;28;20044;-84
2023/06/18 09:32:49;;;;;;;5.95;4.00;;;28.60;42.30;;;;;;5024100;28;20029;-80
2023/06/18 09:35:17;;;;;;;4.40;3.83;;;28.60;42.20;;;;;;5038338;28;20049;-77
2023/06/18 09:37:44;;;;;;;4.78;3.78;;;28.70;42.20;;;;;;5017362;28;20534;-74
2023/06/18 09:40:21;;;;;;;4.10;3.67;;;28.70;42.30;;;;;;5034479;28;20030;-79
2023/06/18 09:42:51;;;;;;;4.05;3.45;;;28.80;42.30;;;;;;5017540;28;20033;-80
2023/06/18 09:45:18;;;;;;;4.03;3.63;;;28.80;42.40;;;;;;5035126;28;20034;-81
2023/06/18 09:47:47;;;;;;;5.28;3.67;;;28.80;42.20;;;;;;5013419;28;20087;-78
2023/06/18 09:50:13;;;;;;;6.13;3.80;;;28.90;42.20;;;;;;5013331;28;20498;-77
2023/06/18 09:52:46;;;;;;;4.45;3.65;;;28.90;42.10;;;;;;5014950;28;20120;-77
2023/06/18 09:55:31;;;;;;;;;;;28.90;42.00;;;;;;5015213;28;20037;-79
2023/06/18 09:57:58;;;;;;;5.75;4.00;;;28.90;42.40;;;;;;5013966;28;19952;-82
2023/06/18 10:00:25;;;;;;;5.88;4.15;;;28.90;42.70;;;;;;5014371;28;20040;-81
2023/06/18 10:02:51;;;;;;;4.55;3.88;;;29.00;43.10;;;;;;5014914;28;20048;-88
2023/06/18 10:05:17;;;;;;;4.93;3.88;;;28.90;43.40;;;;;;5013831;28;20026;-85
2023/06/18 10:07:43;;;;;;;6.10;4.00;;;28.80;43.60;;;;;;5012896;28;20396;-82
2023/06/18 10:10:13;;;;;;;5.28;4.25;;;28.80;43.80;;;;;;4994475;28;20054;-84
2023/06/18 10:12:44;;;;;;;4.88;4.05;;;28.90;43.90;;;;;;4977221;28;20094;-83
2023/06/18 10:15:12;;;;;;;5.18;4.13;;;28.90;43.90;;;;;;4997920;28;20038;-79
2023/06/18 10:17:43;;;;;;;5.53;4.30;;;28.90;44.00;;;;;;5000065;28;20109;-80
2023/06/18 10:20:12;;;;;;;7.88;4.57;;;28.90;44.00;;;;;;4979208;28;20373;-83
2023/06/18 10:22:42;;;;;;;5.00;4.50;;;28.90;44.00;;;;;;4994796;28;20034;-80
2023/06/18 10:25:08;;;;;;;4.22;3.83;;;28.90;44.10;;;;;;4995059;28;20030;-82
2023/06/18 10:27:35;;;;;;;4.53;4.07;;;28.90;44.20;;;;;;4993708;28;20045;-82
2023/06/18 10:30:01;;;;;;;5.13;4.28;;;28.90;44.30;;;;;;4995196;28;20128;-81
2023/06/18 10:32:28;;;;;;;4.60;4.03;;;28.80;44.20;;;;;;4994999;28;20030;-83
2023/06/18 10:34:56;;;;;;;5.13;4.32;;;28.80;44.20;;;;;;4997688;28;20037;-84
2023/06/18 10:37:25;;;;;;;4.65;4.00;;;28.70;44.10;;;;;;5010029;28;20061;-81
2023/06/18 10:39:51;;;;;;;5.22;4.15;;;28.70;44.20;;;;;;4990387;28;20026;-81
2023/06/18 10:42:18;;;;;;;4.70;4.20;;;28.70;44.10;;;;;;4999914;28;20388;-82
2023/06/18 10:44:54;;;;;;;6.38;4.22;;;28.70;44.10;;;;;;4994817;28;20157;-83
2023/06/18 10:47:25;;;;;;;4.53;4.13;;;28.80;44.00;;;;;;5008734;28;20091;-83
2023/06/18 10:50:07;;;;;;;4.50;3.80;;;28.80;44.00;;;;;;5013839;28;20035;-82
2023/06/18 10:52:40;;;;;;;4.95;4.38;;;28.90;43.90;;;;;;5013771;28;20026;-82
2023/06/18 10:55:13;;;;;;;5.18;4.18;;;28.90;43.90;;;;;;5014523;28;20046;-83
2023/06/18 10:57:50;;;;;;;4.38;3.95;;;28.90;43.90;;;;;;5014283;28;20050;-84
2023/06/18 11:00:31;;;;;;;4.38;3.80;;;29.00;43.90;;;;;;5011872;28;20034;-82
2023/06/18 11:02:59;;;;;;;5.65;4.05;;;28.90;43.70;;;;;;5012197;28;20141;-81
2023/06/18 11:05:31;;;;;;;6.65;4.50;;;29.00;43.80;;;;;;5013966;28;20030;-83
2023/06/18 11:08:10;;;;;;;4.93;4.43;;;29.00;43.60;;;;;;5016967;28;20061;-78
2023/06/18 11:10:49;;;;;;;4.95;4.35;;;29.00;43.60;;;;;;5032910;28;20100;-82
2023/06/18 11:13:16;;;;;;;4.78;3.88;;;29.00;43.60;;;;;;5015326;28;20043;-82
2023/06/18 11:16:10;;;;;;;4.50;3.80;;;29.10;43.50;;;;;;5036197;28;20025;-81
2023/06/18 11:18:36;;;;;;;3.78;3.38;;;29.10;42.90;;;;;;5019880;28;20028;-83
2023/06/18 11:21:03;;;;;;;5.45;4.15;;;29.20;42.90;;;;;;5033638;28;20041;-82
2023/06/18 11:23:30;;;;;;;4.72;4.07;;;29.20;42.90;;;;;;5032553;28;20036;-81
2023/06/18 11:25:56;;;;;;;4.85;3.80;;;29.30;42.90;;;;;;5033071;28;20361;-82
2023/06/18 11:28:24;;;;;;;4.72;4.15;;;29.30;42.80;;;;;;5032634;28;20037;-81
2023/06/18 11:30:58;;;;;;;4.72;4.05;;;29.20;42.90;;;;;;5037289;28;20036;-80
2023/06/18 11:33:28;;;;;;;5.40;4.00;;;29.30;42.80;;;;;;5018276;28;20391;-81
2023/06/18 11:36:05;;;;;;;5.20;4.03;;;29.20;42.90;;;;;;5032659;28;20033;-81
2023/06/18 11:38:31;;;;;;;4.88;4.20;;;29.30;43.10;;;;;;5033337;28;20032;-81
2023/06/18 11:40:57;;;;;;;4.82;4.10;;;29.20;43.10;;;;;;5033223;28;20057;-82
2023/06/18 11:43:23;;;;;;;5.15;4.07;;;29.20;43.10;;;;;;5033003;28;20045;-82
2023/06/18 11:45:50;;;;;;;4.30;3.90;;;29.20;43.10;;;;;;5032389;28;20030;-81
2023/06/18 11:48:19;;;;;;;5.72;4.07;;;29.30;43.10;;;;;;5037227;28;20517;-80
2023/06/18 11:50:46;;;;;;;4.60;3.90;;;29.30;43.00;;;;;;5023468;28;20025;-81
2023/06/18 11:53:14;;;;;;;4.63;4.10;;;29.30;42.90;;;;;;5042351;28;20042;-82
2023/06/18 11:55:41;;;;;;;5.07;4.20;;;29.30;42.90;;;;;;5033062;28;20048;-82
2023/06/18 11:58:07;;;;;;;4.72;4.10;;;29.40;42.90;;;;;;5032414;28;20116;-81
2023/06/18 12:00:33;;;;;;;5.30;3.85;;;29.50;42.90;;;;;;5032149;28;20064;-81
2023/06/18 12:03:01;;;;;;;4.88;3.92;;;29.50;42.90;;;;;;5033016;28;20025;-81
2023/06/18 12:05:40;;;;;;;4.25;3.85;;;29.50;42.80;;;;;;5032441;28;20072;-81
2023/06/18 12:08:09;;;;;;;4.07;3.67;;;29.60;42.70;;;;;;5032531;28;20132;-81
2023/06/18 12:10:37;;;;;;;4.70;4.10;;;29.60;42.70;;;;;;5033849;28;20463;-81
2023/06/18 12:13:08;;;;;;;4.50;4.07;;;29.60;42.70;;;;;;5032354;28;20061;-83
2023/06/18 12:15:46;;;;;;;4.72;4.22;;;29.60;42.60;;;;;;5014034;28;20033;-82
2023/06/18 12:18:18;;;;;;;4.43;4.03;;;29.60;42.60;;;;;;5032169;28;20053;-80
2023/06/18 12:20:44;;;;;;;4.10;3.70;;;29.60;42.60;;;;;;5032772;28;20039;-83
2023/06/18 12:23:11;;;;;;;4.47;3.85;;;29.60;42.60;;;;;;5036554;28;20402;-82
2023/06/18 12:25:38;;;;;;;4.18;3.60;;;29.60;42.50;;;;;;5017935;28;20030;-82
2023/06/18 12:28:04;;;;;;;4.00;3.60;;;29.60;42.50;;;;;;5035808;28;20075;-82
2023/06/18 12:30:41;;;;;;;4.57;4.18;;;29.70;42.60;;;;;;5018572;28;20451;-80
2023/06/18 12:33:12;;;;;;;4.30;3.90;;;29.80;42.40;;;;;;5036527;28;20133;-81
2023/06/18 12:35:40;;;;;;;4.40;4.00;;;29.90;42.50;;;;;;5017932;28;20041;-81
2023/06/18 12:38:09;;;;;;;4.10;3.70;;;30.00;42.40;;;;;;5035378;28;20026;-81
2023/06/18 12:40:49;;;;;;;4.38;3.70;;;30.10;42.30;;;;;;5035790;28;20037;-81
2023/06/18 12:43:17;;;;;;;4.90;4.00;;;30.10;42.10;;;;;;5036100;28;20022;-81
2023/06/18 12:45:47;;;;;;;3.90;3.60;;;30.20;42.10;;;;;;5018620;28;20364;-80
2023/06/18 12:48:15;;;;;;;5.68;3.60;;;30.30;42.10;;;;;;5041301;28;20029;-82